Terminal Aerodrome Forecast
Issued by NWS

Home | Current Version | Previous Version | Text Only | Print | Product List | Glossary On
Versions: 1 2 3 4 5 6 7 8 9 10 11 12 13 14 15 16 17 18 19 20 21 22 23 24 25 26
829
FTUS45 KREV 241120
TAFTRK
TAF
KTRK 241120Z 2412/2512 21011KT P6SM SCT030 BKN050
     FM241400 20013G22KT P6SM VCSH SCT025 SCT040 BKN070
      WS020/24040KT
     FM241900 20016G28KT 6SM -SHRASN SCT020 BKN035 OVC050
      WS020/25045KT
     FM242300 21015G25KT 2SM -SN BKN010 OVC020 WS020/25045KT
     FM250400 25008KT 5SM -SHSN BKN015 OVC025
     FM250800 VRB04KT P6SM VCSH SCT020 BKN035=

USA.gov is the U.S. government's official web portal to all federal, state and local government web resources and services.